createdAt,value
2018-08-09T00:00:03.345Z,101085.38
2018-08-09T00:02:32.173Z,101077.17
2018-08-09T00:05:00.784Z,101082.98
2018-08-09T00:07:29.540Z,101077.86
2018-08-09T00:09:57.987Z,101077.01
2018-08-09T00:12:26.937Z,101076.16
2018-08-09T00:14:55.632Z,101076.17
2018-08-09T00:17:23.944Z,101073.08
2018-08-09T00:19:52.429Z,101072.74
2018-08-09T00:22:20.882Z,101068.98
2018-08-09T00:24:49.409Z,101062.15
2018-08-09T00:27:17.856Z,101065.23
2018-08-09T00:29:45.972Z,101064.70
2018-08-09T00:32:14.841Z,101051.35
2018-08-09T00:34:43.587Z,101052.72
2018-08-09T00:37:12.380Z,101045.21
2018-08-09T00:39:41.393Z,101048.27
2018-08-09T00:42:10.170Z,101043.34
2018-08-09T00:44:39.085Z,101042.64
2018-08-09T00:47:07.937Z,101041.80
2018-08-09T00:49:36.385Z,101041.25
2018-08-09T00:52:05.381Z,101051.33
2018-08-09T00:54:33.525Z,101056.08
2018-08-09T00:57:02.328Z,101062.85
2018-08-09T00:59:31.020Z,101061.46
2018-08-09T01:01:59.505Z,101064.02
2018-08-09T01:04:27.923Z,101073.55
2018-08-09T01:06:56.376Z,101068.94
2018-08-09T01:09:24.833Z,101065.02
2018-08-09T01:11:53.244Z,101070.30
2018-08-09T01:14:21.730Z,101067.88
2018-08-09T01:16:50.488Z,101073.34
2018-08-09T01:19:18.932Z,101061.58
2018-08-09T01:21:47.385Z,101054.55
2018-08-09T01:24:15.877Z,101060.89
2018-08-09T01:26:43.988Z,101062.22
2018-08-09T01:29:12.149Z,101062.39
2018-08-09T01:31:40.976Z,101067.50
2018-08-09T01:34:10.304Z,101070.41
2018-08-09T01:36:38.968Z,101074.33
2018-08-09T01:39:10.234Z,101071.95
2018-08-09T01:41:38.679Z,101066.14
2018-08-09T01:44:08.001Z,101062.22
2018-08-09T01:46:36.816Z,101059.66
2018-08-09T01:49:05.118Z,101063.41
2018-08-09T01:51:40.196Z,101063.38
2018-08-09T01:54:08.648Z,101065.09
2018-08-09T01:56:37.173Z,101061.83
2018-08-09T01:59:05.309Z,101071.39
2018-08-09T02:01:33.772Z,101073.94
2018-08-09T02:04:02.875Z,101071.56
2018-08-09T02:06:31.630Z,101072.39
2018-08-09T02:09:05.040Z,101063.33
2018-08-09T02:11:34.033Z,101063.30
2018-08-09T02:14:02.657Z,101059.02
2018-08-09T02:16:31.403Z,101060.03
2018-08-09T02:18:59.968Z,101059.19
2018-08-09T02:21:28.461Z,101054.36
2018-08-09T02:23:56.594Z,101061.53
2018-08-09T02:26:26.492Z,101065.98
2018-08-09T02:28:54.964Z,101065.62
2018-08-09T02:31:23.283Z,101075.00
2018-08-09T02:33:57.053Z,101070.56
2018-08-09T02:36:26.837Z,101071.08
2018-08-09T02:38:55.581Z,101069.36
2018-08-09T02:41:24.032Z,101066.59
2018-08-09T02:43:52.320Z,101058.86
2018-08-09T02:46:20.460Z,101069.11
2018-08-09T02:48:49.021Z,101061.94
2018-08-09T02:51:17.764Z,101059.52
2018-08-09T02:53:46.562Z,101061.83
2018-08-09T02:56:15.020Z,101058.70
2018-08-09T02:58:43.604Z,101061.91
2018-08-09T03:01:11.747Z,101060.36
2018-08-09T03:03:40.585Z,101058.98
2018-08-09T03:06:09.070Z,101057.08
2018-08-09T03:08:37.481Z,101054.36
2018-08-09T03:11:06.134Z,101068.64
2018-08-09T03:13:34.552Z,101070.85
2018-08-09T03:16:02.698Z,101064.73
2018-08-09T03:18:31.515Z,101065.28
2018-08-09T03:20:59.992Z,101060.34
2018-08-09T03:23:28.406Z,101061.84
2018-08-09T03:25:56.541Z,101058.75
2018-08-09T03:28:24.680Z,101055.98
2018-08-09T03:30:53.436Z,101051.22
2018-08-09T03:33:21.904Z,101049.85
2018-08-09T03:35:50.660Z,101056.33
2018-08-09T03:38:19.410Z,101057.91
2018-08-09T03:40:47.877Z,101055.18
2018-08-09T03:43:16.617Z,101049.69
2018-08-09T03:45:45.078Z,101044.88
2018-08-09T03:48:13.978Z,101044.70
2018-08-09T03:50:42.744Z,101039.06
2018-08-09T03:53:11.200Z,101041.42
2018-08-09T03:55:39.957Z,101040.18
2018-08-09T03:58:08.525Z,101040.46
2018-08-09T04:00:43.141Z,101044.80
2018-08-09T04:03:11.920Z,101044.02
2018-08-09T04:05:40.385Z,101039.71
2018-08-09T04:08:09.101Z,101044.67
2018-08-09T04:10:37.848Z,101039.94
2018-08-09T04:13:06.508Z,101031.81
2018-08-09T04:15:35.169Z,101042.77
2018-08-09T04:18:03.573Z,101039.33
2018-08-09T04:20:32.240Z,101039.14
2018-08-09T04:23:01.104Z,101034.53
2018-08-09T04:25:29.869Z,101038.67
2018-08-09T04:27:58.482Z,101036.98
2018-08-09T04:30:26.916Z,101045.04
2018-08-09T04:32:55.404Z,101037.92
2018-08-09T04:35:23.792Z,101035.55
2018-08-09T04:37:52.289Z,101035.02
2018-08-09T04:40:20.629Z,101033.23
2018-08-09T04:42:49.086Z,101040.75
2018-08-09T04:45:17.575Z,101039.86
2018-08-09T04:47:45.744Z,101048.57
2018-08-09T04:50:14.221Z,101057.05
2018-08-09T04:52:43.041Z,101066.67
2018-08-09T04:55:11.534Z,101069.71
2018-08-09T04:57:40.168Z,101068.81
2018-08-09T05:00:08.398Z,101068.53
2018-08-09T05:02:37.070Z,101056.79
2018-08-09T05:05:05.224Z,101053.41
2018-08-09T05:07:33.621Z,101046.59
2018-08-09T05:12:42.080Z,101053.23
2018-08-09T05:15:11.676Z,101054.25
2018-08-09T05:17:40.224Z,101055.48
2018-08-09T05:20:08.655Z,101050.57
2018-08-09T05:22:37.095Z,101058.80
2018-08-09T05:25:05.924Z,101064.66
2018-08-09T05:27:34.918Z,101066.11
2018-08-09T05:30:03.617Z,101063.25
2018-08-09T05:32:31.929Z,101064.66
2018-08-09T05:35:00.054Z,101072.05
2018-08-09T05:37:28.752Z,101072.47
2018-08-09T05:39:57.204Z,101062.25
2018-08-09T05:42:25.328Z,101050.31
2018-08-09T05:44:53.724Z,101055.77
2018-08-09T05:47:22.237Z,101046.36
2018-08-09T05:49:50.939Z,101051.70
2018-08-09T05:52:19.446Z,101061.81
2018-08-09T05:54:47.689Z,101060.47
2018-08-09T05:57:16.106Z,101057.47
2018-08-09T05:59:44.236Z,101060.90
2018-08-09T06:02:12.704Z,101070.34
2018-08-09T06:04:41.107Z,101071.54
2018-08-09T06:07:09.328Z,101067.97
2018-08-09T06:09:38.410Z,101069.16
2018-08-09T06:12:06.862Z,101068.63
2018-08-09T06:14:35.105Z,101073.95
2018-08-09T06:17:03.261Z,101070.14
2018-08-09T06:19:31.857Z,101065.65
2018-08-09T06:22:00.386Z,101057.72
2018-08-09T06:24:29.724Z,101056.59
2018-08-09T06:26:58.292Z,101047.83
2018-08-09T06:29:27.418Z,101041.56
2018-08-09T06:31:56.148Z,101035.88
2018-08-09T06:34:24.761Z,101027.76
2018-08-09T06:36:53.474Z,101021.38
2018-08-09T06:39:21.975Z,101029.13
2018-08-09T06:41:50.132Z,101019.93
2018-08-09T06:44:18.584Z,101020.00
2018-08-09T06:46:47.418Z,101019.50
2018-08-09T06:49:15.873Z,101029.75
2018-08-09T06:51:44.519Z,101028.72
2018-08-09T06:54:12.673Z,101029.19
2018-08-09T06:56:41.089Z,101032.61
2018-08-09T06:59:10.213Z,101020.15
2018-08-09T07:01:38.403Z,101025.56
2018-08-09T07:04:07.149Z,101016.97
2018-08-09T07:06:35.612Z,101012.47
2018-08-09T07:09:06.641Z,101006.37
2018-08-09T07:11:35.084Z,101008.22
2018-08-09T07:14:03.241Z,100996.01
2018-08-09T07:16:31.704Z,101000.01
2018-08-09T07:18:59.957Z,100999.37
2018-08-09T07:21:28.684Z,101014.51
2018-08-09T07:23:57.637Z,101002.87
2018-08-09T07:26:27.475Z,100998.73
2018-08-09T07:28:56.032Z,101009.98
2018-08-09T07:31:24.492Z,101004.60
2018-08-09T07:33:52.990Z,100994.13
2018-08-09T07:36:21.625Z,100998.17
2018-08-09T07:38:50.072Z,100998.80
2018-08-09T07:41:18.452Z,100991.43
2018-08-09T07:43:46.601Z,100992.80
2018-08-09T07:46:15.053Z,100984.75
2018-08-09T07:48:43.536Z,100980.95
2018-08-09T07:51:12.122Z,100970.27
2018-08-09T07:53:40.609Z,100973.75
2018-08-09T07:56:17.305Z,100968.92
2018-08-09T07:58:45.874Z,100977.78
2018-08-09T08:01:14.682Z,100970.36
2018-08-09T08:03:43.341Z,100956.02
2018-08-09T08:06:11.494Z,100949.70
2018-08-09T08:08:40.185Z,100947.61
2018-08-09T08:11:08.876Z,100935.83
2018-08-09T08:13:37.654Z,100944.86
2018-08-09T08:16:06.020Z,100947.68
2018-08-09T08:18:34.672Z,100954.47
2018-08-09T08:21:03.454Z,100957.77
2018-08-09T08:23:32.086Z,100969.05
2018-08-09T08:26:00.536Z,100972.93
2018-08-09T08:28:29.841Z,100973.82
2018-08-09T08:30:58.232Z,100969.19
2018-08-09T08:33:27.853Z,100961.26
2018-08-09T08:36:02.321Z,100966.81
2018-08-09T08:38:30.532Z,100960.27
2018-08-09T08:40:58.980Z,100961.52
2018-08-09T08:43:27.532Z,100959.87
2018-08-09T08:45:56.585Z,100966.68
2018-08-09T08:48:24.713Z,100958.95
2018-08-09T08:50:53.125Z,100971.79
2018-08-09T08:53:21.554Z,100974.08
2018-08-09T08:55:49.824Z,100977.75
2018-08-09T08:58:18.256Z,100967.12
2018-08-09T09:00:46.391Z,100955.34
2018-08-09T09:03:15.178Z,100953.33
2018-08-09T09:05:43.760Z,100950.50
2018-08-09T09:08:12.243Z,100943.83
2018-08-09T09:10:40.793Z,100944.00
2018-08-09T09:13:09.501Z,100933.33
2018-08-09T09:15:37.615Z,100933.66
2018-08-09T09:18:06.279Z,100924.45
2018-08-09T09:20:34.861Z,100921.95
2018-08-09T09:23:03.846Z,100915.08
2018-08-09T09:25:33.188Z,100919.20
2018-08-09T09:28:01.668Z,100919.38
2018-08-09T09:30:30.320Z,100919.38
2018-08-09T09:32:58.452Z,100916.62
2018-08-09T09:35:28.070Z,100921.54
2018-08-09T09:37:56.228Z,100914.53
2018-08-09T09:40:24.346Z,100900.06
2018-08-09T09:42:52.660Z,100898.16
2018-08-09T09:45:21.113Z,100903.30
2018-08-09T09:47:49.403Z,100894.05
2018-08-09T09:50:17.762Z,100890.59
2018-08-09T09:52:45.891Z,100875.73
2018-08-09T09:55:14.673Z,100862.58
2018-08-09T09:57:42.800Z,100852.33
2018-08-09T10:00:16.384Z,100863.50
2018-08-09T10:02:45.608Z,100859.91
2018-08-09T10:05:14.284Z,100857.28
2018-08-09T10:07:43.027Z,100857.08
2018-08-09T10:10:12.473Z,100844.92
2018-08-09T10:12:42.468Z,100843.21
2018-08-09T10:15:10.798Z,100851.41
2018-08-09T10:17:39.252Z,100845.78
2018-08-09T10:20:08.154Z,100836.52
2018-08-09T10:22:36.884Z,100838.58
2018-08-09T10:25:05.808Z,100831.06
2018-08-09T10:27:34.266Z,100825.68
2018-08-09T10:32:36.592Z,100831.47
2018-08-09T10:35:04.720Z,100840.11
2018-08-09T10:37:33.419Z,100864.48
2018-08-09T10:40:01.864Z,100886.06
2018-08-09T10:42:30.226Z,100868.33
2018-08-09T10:44:59.253Z,100798.66
2018-08-09T10:47:27.816Z,100759.06
2018-08-09T10:49:56.516Z,100729.77
2018-08-09T10:52:24.698Z,100731.28
2018-08-09T10:54:53.190Z,100731.08
2018-08-09T10:57:22.445Z,100726.93
2018-08-09T10:59:50.795Z,100740.78
2018-08-09T11:02:18.978Z,100726.13
2018-08-09T11:04:47.108Z,100721.97
2018-08-09T11:07:15.875Z,100715.14
2018-08-09T11:09:44.277Z,100715.50
2018-08-09T11:12:13.081Z,100709.04
2018-08-09T11:14:41.556Z,100706.59
2018-08-09T11:17:09.672Z,100710.80
2018-08-09T11:19:37.811Z,100698.85
2018-08-09T11:22:06.644Z,100699.28
2018-08-09T11:24:35.077Z,100689.90
2018-08-09T11:27:03.881Z,100690.55
2018-08-09T11:29:34.306Z,100688.39
2018-08-09T11:32:02.734Z,100683.06
2018-08-09T11:34:30.861Z,100674.11
2018-08-09T11:36:59.212Z,100655.34
2018-08-09T11:39:28.008Z,100638.93
2018-08-09T11:41:56.452Z,100637.13
2018-08-09T11:44:25.030Z,100630.47
2018-08-09T11:46:53.177Z,100636.95
2018-08-09T11:49:22.202Z,100631.89
2018-08-09T11:51:51.552Z,100631.88
2018-08-09T11:54:20.168Z,100626.87
2018-08-09T11:56:48.565Z,100615.67
2018-08-09T11:59:16.865Z,100621.95
2018-08-09T12:01:45.200Z,100616.37
2018-08-09T12:04:14.025Z,100612.67
2018-08-09T12:06:42.537Z,100611.05
2018-08-09T12:09:12.029Z,100599.82
2018-08-09T12:11:40.299Z,100597.22
2018-08-09T12:14:09.106Z,100594.13
2018-08-09T12:16:37.990Z,100587.50
2018-08-09T12:19:07.103Z,100588.81
2018-08-09T12:21:36.394Z,100589.47
2018-08-09T12:24:04.804Z,100574.89
2018-08-09T12:26:33.099Z,100573.89
2018-08-09T12:29:01.564Z,100565.45
2018-08-09T12:31:30.001Z,100572.56
2018-08-09T12:33:58.116Z,100562.45
2018-08-09T12:37:31.344Z,100552.55
2018-08-09T12:39:59.723Z,100545.01
2018-08-09T12:42:27.864Z,100532.96
2018-08-09T12:44:55.996Z,100515.03
2018-08-09T12:47:24.463Z,100517.63
2018-08-09T12:49:53.197Z,100512.73
2018-08-09T12:52:21.357Z,100498.19
2018-08-09T12:54:49.494Z,100490.78
2018-08-09T12:57:17.641Z,100485.87
2018-08-09T12:59:46.009Z,100483.53
2018-08-09T13:02:14.171Z,100468.71
2018-08-09T13:04:42.620Z,100462.16
2018-08-09T13:07:11.112Z,100443.86
2018-08-09T13:09:39.241Z,100447.28
2018-08-09T13:12:07.609Z,100425.48
2018-08-09T13:14:35.980Z,100406.73
2018-08-09T13:17:04.174Z,100384.89
2018-08-09T13:19:32.309Z,100382.59
2018-08-09T13:22:00.671Z,100377.33
2018-08-09T13:24:28.806Z,100375.42
2018-08-09T13:26:57.221Z,100372.22
2018-08-09T13:29:25.685Z,100360.59
2018-08-09T13:31:53.836Z,100347.53
2018-08-09T13:34:22.321Z,100356.98
2018-08-09T13:36:50.461Z,100344.42
2018-08-09T13:39:18.600Z,100335.14
2018-08-09T13:41:46.985Z,100324.30
2018-08-09T13:44:15.370Z,100315.92
2018-08-09T13:46:43.540Z,100301.20
2018-08-09T13:49:12.109Z,100302.58
2018-08-09T13:51:40.267Z,100308.39
2018-08-09T13:54:08.681Z,100293.12
2018-08-09T13:56:36.832Z,100285.75
2018-08-09T13:59:05.002Z,100276.75
2018-08-09T14:01:33.241Z,100277.85
2018-08-09T14:04:02.008Z,100267.86
2018-08-09T14:06:31.007Z,100252.30
2018-08-09T14:08:59.496Z,100242.56
2018-08-09T14:11:27.940Z,100241.88
2018-08-09T14:13:56.416Z,100236.23
2018-08-09T14:16:24.561Z,100228.67
2018-08-09T14:18:53.249Z,100223.94
2018-08-09T14:21:21.377Z,100210.70
2018-08-09T14:23:49.717Z,100199.11
2018-08-09T14:26:18.434Z,100187.68
2018-08-09T14:28:47.118Z,100176.27
2018-08-09T14:31:15.272Z,100167.90
2018-08-09T14:33:43.394Z,100148.91
2018-08-09T14:36:11.884Z,100143.80
2018-08-09T14:38:40.626Z,100132.94
2018-08-09T14:41:09.149Z,100128.27
2018-08-09T14:43:37.276Z,100122.16
2018-08-09T14:46:05.501Z,100116.06
2018-08-09T14:48:34.209Z,100113.53
2018-08-09T14:51:02.541Z,100103.26
2018-08-09T14:53:31.021Z,100112.44
2018-08-09T14:55:59.404Z,100101.59
2018-08-09T14:58:27.796Z,100086.83
2018-08-09T15:00:55.958Z,100086.73
2018-08-09T15:03:24.341Z,100098.07
2018-08-09T15:05:52.802Z,100106.61
2018-08-09T15:08:21.281Z,100113.02
2018-08-09T15:10:49.660Z,100099.59
2018-08-09T15:13:18.059Z,100073.66
2018-08-09T15:15:46.754Z,100061.91
2018-08-09T15:18:15.121Z,100076.31
2018-08-09T15:23:26.859Z,100078.16
2018-08-09T15:25:55.388Z,100174.39
2018-08-09T15:28:23.751Z,100269.25
2018-08-09T15:30:51.892Z,100327.02
2018-08-09T15:33:20.433Z,100351.72
2018-08-09T15:35:48.553Z,100349.34
2018-08-09T15:38:17.359Z,100312.80
2018-08-09T15:40:45.904Z,100326.55
2018-08-09T15:43:14.036Z,100316.75
2018-08-09T15:45:42.149Z,100315.31
2018-08-09T15:48:10.293Z,100294.03
2018-08-09T15:50:39.072Z,100288.25
2018-08-09T15:53:07.408Z,100296.78
2018-08-09T15:55:35.777Z,100298.19
2018-08-09T15:58:04.193Z,100301.05
2018-08-09T16:00:32.668Z,100301.84
2018-08-09T16:03:00.802Z,100299.63
2018-08-09T16:05:29.181Z,100293.31
2018-08-09T16:07:57.329Z,100292.66
2018-08-09T16:10:25.684Z,100261.95
2018-08-09T16:12:54.756Z,100252.57
2018-08-09T16:15:23.116Z,100255.88
2018-08-09T16:17:51.244Z,100273.62
2018-08-09T16:20:19.367Z,100293.39
2018-08-09T16:22:47.740Z,100305.83
2018-08-09T16:25:17.339Z,100313.35
2018-08-09T16:27:45.553Z,100328.78
2018-08-09T16:30:18.875Z,100331.63
2018-08-09T16:32:47.229Z,100327.00
2018-08-09T16:35:15.383Z,100310.32
2018-08-09T16:37:44.177Z,100309.81
2018-08-09T16:40:17.060Z,100308.73
2018-08-09T16:42:45.175Z,100305.45
2018-08-09T16:45:14.826Z,100303.55
2018-08-09T16:47:43.130Z,100301.84
2018-08-09T16:50:13.356Z,100291.39
2018-08-09T16:52:41.484Z,100295.54
2018-08-09T16:55:11.312Z,100291.52
2018-08-09T16:57:39.441Z,100287.50
2018-08-09T17:00:10.171Z,100277.27
2018-08-09T17:02:39.121Z,100282.66
2018-08-09T17:05:11.023Z,100290.10
2018-08-09T17:07:39.697Z,100283.54
2018-08-09T17:10:08.833Z,100301.43
2018-08-09T17:12:37.568Z,100331.05
2018-08-09T17:15:08.564Z,100334.22
2018-08-09T17:17:36.764Z,100337.61
2018-08-09T17:20:08.032Z,100339.60
2018-08-09T17:22:36.404Z,100330.61
2018-08-09T17:25:04.968Z,100332.75
2018-08-09T17:27:33.784Z,100325.84
2018-08-09T17:30:02.144Z,100327.55
2018-08-09T17:32:30.812Z,100332.83
2018-08-09T17:34:58.936Z,100326.71
2018-08-09T17:37:27.432Z,100325.88
2018-08-09T17:39:55.760Z,100330.19
2018-08-09T17:42:24.435Z,100327.88
2018-08-09T17:44:52.556Z,100318.34
2018-08-09T17:47:20.911Z,100324.16
2018-08-09T17:49:49.432Z,100317.39
2018-08-09T17:52:17.661Z,100312.64
2018-08-09T17:54:46.164Z,100309.46
2018-08-09T17:57:14.853Z,100306.72
2018-08-09T17:59:42.967Z,100308.17
2018-08-09T18:02:11.318Z,100320.70
2018-08-09T18:04:39.950Z,100325.23
2018-08-09T18:07:08.265Z,100317.53
2018-08-09T18:09:36.989Z,100315.52
2018-08-09T18:12:05.327Z,100311.94
2018-08-09T18:14:33.780Z,100307.48
2018-08-09T18:17:02.225Z,100310.13
2018-08-09T18:19:30.693Z,100298.81
2018-08-09T18:21:59.157Z,100294.91
2018-08-09T18:24:27.844Z,100300.59
2018-08-09T18:26:56.185Z,100297.75
2018-08-09T18:29:24.525Z,100305.34
2018-08-09T18:31:52.680Z,100301.44
2018-08-09T18:34:21.317Z,100292.13
2018-08-09T18:36:49.448Z,100296.54
2018-08-09T18:39:17.567Z,100289.78
2018-08-09T18:41:46.097Z,100288.09
2018-08-09T18:44:14.784Z,100280.58
2018-08-09T18:46:42.901Z,100280.06
2018-08-09T18:49:11.592Z,100278.47
2018-08-09T18:51:39.996Z,100274.76
2018-08-09T18:54:08.368Z,100278.88
2018-08-09T18:56:36.492Z,100272.81
2018-08-09T18:59:04.840Z,100273.14
2018-08-09T19:01:32.964Z,100271.63
2018-08-09T19:04:01.263Z,100272.90
2018-08-09T19:06:29.593Z,100275.64
2018-08-09T19:08:58.279Z,100285.33
2018-08-09T19:11:27.033Z,100274.96
2018-08-09T19:13:55.677Z,100276.01
2018-08-09T19:16:23.838Z,100281.39
2018-08-09T19:18:52.272Z,100282.22
2018-08-09T19:21:20.385Z,100288.04
2018-08-09T19:23:48.491Z,100299.74
2018-08-09T19:26:16.796Z,100297.86
2018-08-09T19:28:44.896Z,100303.79
2018-08-09T19:31:13.234Z,100298.63
2018-08-09T19:33:41.361Z,100301.98
2018-08-09T19:36:09.712Z,100298.41
2018-08-09T19:38:38.001Z,100297.14
2018-08-09T19:41:06.708Z,100303.17
2018-08-09T19:43:35.388Z,100301.41
2018-08-09T19:46:03.827Z,100307.08
2018-08-09T19:48:32.585Z,100294.80
2018-08-09T19:51:00.949Z,100304.58
2018-08-09T19:53:29.612Z,100307.33
2018-08-09T19:55:57.796Z,100318.45
2018-08-09T19:58:26.460Z,100316.65
2018-08-09T20:00:54.579Z,100307.15
2018-08-09T20:03:22.693Z,100301.33
2018-08-09T20:05:50.859Z,100309.89
2018-08-09T20:08:19.539Z,100320.27
2018-08-09T20:10:47.992Z,100321.64
2018-08-09T20:13:16.667Z,100327.84
2018-08-09T20:15:44.784Z,100329.73
2018-08-09T20:18:12.887Z,100338.84
2018-08-09T20:20:41.043Z,100343.28
2018-08-09T20:23:09.149Z,100357.52
2018-08-09T20:25:37.497Z,100356.14
2018-08-09T20:28:06.028Z,100357.84
2018-08-09T20:30:34.147Z,100365.14
2018-08-09T20:33:02.603Z,100381.88
2018-08-09T20:35:31.217Z,100377.00
2018-08-09T20:37:59.535Z,100392.44
2018-08-09T20:40:28.341Z,100393.37
2018-08-09T20:42:56.682Z,100407.92
2018-08-09T20:45:25.256Z,100445.88
2018-08-09T20:47:53.683Z,100428.21
2018-08-09T20:50:23.744Z,100449.82
2018-08-09T20:52:52.116Z,100460.05
2018-08-09T20:55:20.448Z,100478.06
2018-08-09T20:57:49.493Z,100477.42
2018-08-09T21:00:19.961Z,100476.69
2018-08-09T21:02:49.289Z,100468.92
2018-08-09T21:05:22.480Z,100479.30
2018-08-09T21:07:52.057Z,100485.74
2018-08-09T21:10:20.173Z,100485.03
2018-08-09T21:12:48.514Z,100480.45
2018-08-09T21:15:17.811Z,100489.56
2018-08-09T21:17:46.371Z,100483.78
2018-08-09T21:20:18.055Z,100480.25
2018-08-09T21:22:47.245Z,100496.02
2018-08-09T21:25:15.708Z,100493.02
2018-08-09T21:27:44.998Z,100494.23
2018-08-09T21:30:17.485Z,100497.87
2018-08-09T21:32:46.341Z,100492.13
2018-08-09T21:35:14.756Z,100501.76
2018-08-09T21:37:43.751Z,100499.55
2018-08-09T21:40:13.184Z,100501.83
2018-08-09T21:42:41.541Z,100504.44
2018-08-09T21:45:13.267Z,100512.52
2018-08-09T21:47:41.771Z,100516.09
2018-08-09T21:50:11.991Z,100514.98
2018-08-09T21:52:40.238Z,100520.50
2018-08-09T21:55:09.021Z,100528.11
2018-08-09T21:57:37.180Z,100529.84
2018-08-09T22:00:08.498Z,100532.78
2018-08-09T22:02:36.961Z,100538.25
2018-08-09T22:05:10.445Z,100545.94
2018-08-09T22:07:43.988Z,100538.59
2018-08-09T22:10:19.722Z,100542.36
2018-08-09T22:12:53.701Z,100560.86
2018-08-09T22:15:27.432Z,100543.76
2018-08-09T22:18:01.272Z,100544.02
2018-08-09T22:20:35.304Z,100552.06
2018-08-09T22:23:03.665Z,100553.82
2018-08-09T22:25:32.022Z,100564.58
2018-08-09T22:28:00.325Z,100575.38
2018-08-09T22:30:28.437Z,100588.67
2018-08-09T22:32:56.943Z,100590.24
2018-08-09T22:35:25.069Z,100596.05
2018-08-09T22:37:53.533Z,100606.16
2018-08-09T22:40:21.901Z,100599.48
2018-08-09T22:42:50.054Z,100608.09
2018-08-09T22:45:18.419Z,100602.13
2018-08-09T22:47:46.812Z,100612.41
2018-08-09T22:50:15.264Z,100617.55
2018-08-09T22:52:43.412Z,100622.54
2018-08-09T22:55:11.797Z,100621.36
2018-08-09T22:57:39.926Z,100615.36
2018-08-09T23:00:15.304Z,100621.67
2018-08-09T23:02:43.833Z,100627.48
2018-08-09T23:05:11.968Z,100640.69
2018-08-09T23:07:40.297Z,100613.66
2018-08-09T23:10:08.777Z,100622.54
2018-08-09T23:12:37.503Z,100637.23
2018-08-09T23:15:06.412Z,100626.98
2018-08-09T23:17:35.132Z,100646.30
2018-08-09T23:20:03.265Z,100649.92
2018-08-09T23:22:31.412Z,100661.41
2018-08-09T23:24:59.914Z,100655.30
2018-08-09T23:27:28.291Z,100678.23
2018-08-09T23:29:56.751Z,100676.52
2018-08-09T23:32:24.908Z,100684.23
2018-08-09T23:34:53.334Z,100684.42
2018-08-09T23:37:21.703Z,100689.72
2018-08-09T23:39:50.344Z,100705.80
2018-08-09T23:42:19.038Z,100715.91
2018-08-09T23:44:47.456Z,100715.57
2018-08-09T23:47:15.756Z,100701.71
2018-08-09T23:49:44.202Z,100718.66
2018-08-09T23:52:12.352Z,100723.48
2018-08-09T23:54:40.480Z,100730.52
2018-08-09T23:57:09.197Z,100733.44
2018-08-09T23:59:37.650Z,100743.55
